Time;durP1;ratioP1;P1;durP2;ratioP2;P2;SDS_P1;SDS_P2;PMS_P1;PMS_P2;Temp;Humidity;BMP_temperature;BMP_pressure;BME280_temperature;BME280_humidity;BME280_pressure;Samples;Min_cycle;Max_cycle;Signal;HPM_P1;HPM_P2
2023/10/08 00:02:27;;;;;;;7.20;3.37;;;;;;;21.26;42.30;96987.72;5087352;28;20031;-84
2023/10/08 00:04:54;;;;;;;8.45;3.40;;;;;;;21.37;42.31;96990.63;5109258;28;20389;-84
2023/10/08 00:07:24;;;;;;;10.35;4.30;;;;;;;21.41;42.03;96991.84;5087497;28;20026;-83
2023/10/08 00:09:53;;;;;;;11.37;4.60;;;;;;;21.51;42.10;96996.78;5108476;28;20035;-84
2023/10/08 00:12:22;;;;;;;10.98;4.35;;;;;;;21.56;41.80;96988.97;5103364;28;20028;-84
2023/10/08 00:14:49;;;;;;;11.25;3.65;;;;;;;21.40;41.81;96984.06;5089516;28;20110;-84
2023/10/08 00:17:18;;;;;;;7.50;3.75;;;;;;;21.53;41.70;96983.16;5101434;28;20033;-84
2023/10/08 00:19:44;;;;;;;12.37;3.47;;;;;;;21.35;42.42;96978.50;5098949;28;20489;-83
2023/10/08 00:22:12;;;;;;;9.97;3.67;;;;;;;21.29;42.21;96980.09;5079300;28;20028;-84
2023/10/08 00:24:41;;;;;;;9.13;3.77;;;;;;;21.15;42.79;96976.63;5080936;28;20115;-84
2023/10/08 00:27:10;;;;;;;8.47;3.83;;;;;;;21.27;42.53;96971.50;5097197;28;20085;-84
2023/10/08 00:29:39;;;;;;;8.43;3.58;;;;;;;21.09;42.68;96972.13;5089688;28;20038;-83
2023/10/08 00:32:11;;;;;;;9.80;3.87;;;;;;;21.38;42.74;96968.19;5101152;28;20088;-84
2023/10/08 00:34:41;;;;;;;8.57;3.55;;;;;;;21.26;43.24;96967.19;5093783;28;20032;-84
2023/10/08 00:37:11;;;;;;;7.97;3.35;;;;;;;21.25;43.03;96962.84;5101656;28;20094;-84
2023/10/08 00:39:40;;;;;;;7.90;3.20;;;;;;;21.23;43.18;96964.91;5095022;28;20024;-83
2023/10/08 00:42:07;;;;;;;8.67;3.93;;;;;;;20.82;43.62;96965.13;5099824;28;20023;-84
2023/10/08 00:44:39;;;;;;;9.43;3.93;;;;;;;20.84;43.38;96961.25;5106517;28;20024;-83
2023/10/08 00:47:06;;;;;;;8.20;3.90;;;;;;;21.15;43.16;96959.78;5088292;28;20038;-83
2023/10/08 00:49:47;;;;;;;7.17;3.10;;;;;;;21.08;43.22;96948.25;5084668;28;20482;-84
2023/10/08 00:52:30;;;;;;;11.73;3.77;;;;;;;21.05;43.29;96954.03;5102196;28;20018;-84
2023/10/08 00:55:08;;;;;;;8.83;3.77;;;;;;;21.24;42.85;96952.34;5092278;28;20028;-82
2023/10/08 00:57:36;;;;;;;9.00;3.17;;;;;;;21.02;43.34;96943.75;5119269;28;20031;-82
2023/10/08 01:00:06;;;;;;;9.23;3.70;;;;;;;21.13;43.42;96946.63;5101548;28;20089;-83
2023/10/08 01:02:45;;;;;;;10.07;3.43;;;;;;;20.90;43.84;96951.59;5097905;28;20023;-83
2023/10/08 01:05:13;;;;;;;9.13;3.67;;;;;;;21.04;43.61;96945.19;5087499;28;20457;-83
2023/10/08 01:07:44;;;;;;;7.47;3.40;;;;;;;21.03;43.54;96940.06;5108873;28;20034;-83
2023/10/08 01:10:10;;;;;;;8.60;3.57;;;;;;;;;;5098364;28;20023;-83
2023/10/08 01:12:44;;;;;;;8.50;3.73;;;;;;;20.87;44.07;96939.44;5088028;28;20925;-83
2023/10/08 01:15:17;;;;;;;11.97;3.37;;;;;;;20.88;44.19;96933.06;5102917;28;20018;-83
2023/10/08 01:17:48;;;;;;;;;;;;;;;20.67;43.82;96936.78;5108558;28;20030;-83
2023/10/08 01:20:36;;;;;;;8.63;3.60;;;;;;;20.77;43.84;96931.03;5091307;28;19959;-83
2023/10/08 01:23:10;;;;;;;9.33;3.90;;;;;;;20.77;43.52;96933.69;5082549;28;20024;-83
2023/10/08 01:25:41;;;;;;;8.37;3.97;;;;;;;21.06;43.36;96936.94;5091532;28;20023;-83
2023/10/08 01:28:18;;;;;;;8.53;3.20;;;;;;;21.16;42.83;96924.81;5090868;28;20019;-83
2023/10/08 01:30:47;;;;;;;8.03;3.27;;;;;;;21.02;42.88;96936.53;5081208;28;20103;-83
2023/10/08 01:33:15;;;;;;;11.07;3.10;;;;;;;21.08;42.88;96935.72;5091800;28;20381;-83
2023/10/08 01:35:41;;;;;;;10.03;4.37;;;;;;;20.83;43.50;96935.53;5105311;28;20015;-83
2023/10/08 01:38:23;;;;;;;9.57;3.87;;;;;;;21.31;42.84;96937.94;5085327;28;20069;-83
2023/10/08 01:40:52;;;;;;;9.73;3.50;;;;;;;21.24;43.05;96944.34;5087844;28;20498;-83
2023/10/08 01:43:19;;;;;;;9.23;3.83;;;;;;;21.30;43.44;96938.16;5084079;28;20114;-83
2023/10/08 01:45:48;;;;;;;10.10;4.23;;;;;;;21.33;43.21;96941.22;5101519;28;20032;-83
2023/10/08 01:48:20;;;;;;;11.60;3.43;;;;;;;21.31;43.38;96935.25;5107524;28;20110;-82
2023/10/08 01:50:49;;;;;;;9.20;3.70;;;;;;;21.24;43.96;96937.13;5088348;28;20027;-83
2023/10/08 01:53:16;;;;;;;8.80;3.47;;;;;;;21.22;43.69;96936.50;5090203;28;20106;-83
2023/10/08 01:55:48;;;;;;;7.77;3.20;;;;;;;21.00;44.46;96935.13;5088033;28;20413;-82
2023/10/08 01:58:17;;;;;;;7.50;2.55;;;;;;;21.31;44.04;96932.56;5098093;28;20136;-83
2023/10/08 02:00:45;;;;;;;8.10;3.77;;;;;;;21.58;43.73;96932.53;5082876;28;20031;-82
2023/10/08 02:03:17;;;;;;;8.43;3.60;;;;;;;21.25;43.89;96936.09;5085764;28;20105;-83
2023/10/08 02:05:46;;;;;;;12.03;4.07;;;;;;;21.52;43.67;96939.53;5110156;28;20038;-81
2023/10/08 02:08:13;;;;;;;14.50;4.13;;;;;;;21.11;43.94;96934.47;5083798;28;20457;-83
2023/10/08 02:10:41;;;;;;;9.90;3.40;;;;;;;21.47;43.74;96933.19;5097662;28;20030;-83
2023/10/08 02:13:10;;;;;;;7.17;3.10;;;;;;;21.23;44.07;96934.66;5106824;28;20051;-83
2023/10/08 02:15:40;;;;;;;8.47;3.03;;;;;;;21.00;44.18;96935.13;5092169;28;20065;-83
2023/10/08 02:18:06;;;;;;;9.80;3.77;;;;;;;21.03;44.23;96930.19;5079885;28;20478;-83
2023/10/08 02:20:35;;;;;;;10.03;3.37;;;;;;;21.18;44.36;96933.44;5088683;28;20484;-83
2023/10/08 02:23:06;;;;;;;7.37;3.13;;;;;;;21.32;44.61;96938.75;5105450;28;20526;-83
2023/10/08 02:25:34;;;;;;;8.73;3.23;;;;;;;21.44;44.04;96925.59;5104063;28;20024;-83
2023/10/08 02:28:04;;;;;;;8.40;3.47;;;;;;;21.56;43.74;96924.72;5096290;28;20099;-83
2023/10/08 02:30:30;;;;;;;8.77;3.70;;;;;;;21.38;44.01;96933.41;5089931;28;20069;-82
2023/10/08 02:32:55;;;;;;;8.17;3.73;;;;;;;21.09;44.64;96936.53;5089290;28;20023;-83
2023/10/08 02:35:22;;;;;;;6.77;2.97;;;;;;;20.81;44.73;96932.25;5087831;28;20039;-83
2023/10/08 02:37:48;;;;;;;8.77;3.23;;;;;;;21.22;43.83;96923.13;5090605;28;20019;-84
2023/10/08 02:40:30;;;;;;;8.63;4.07;;;;;;;20.75;44.87;96935.75;5093268;28;20027;-83
2023/10/08 02:43:00;;;;;;;9.93;3.60;;;;;;;20.83;44.53;96930.19;5087900;28;20024;-83
2023/10/08 02:45:37;;;;;;;7.57;3.23;;;;;;;20.77;44.60;96925.66;5097929;28;20442;-83
2023/10/08 02:48:04;;;;;;;7.23;3.10;;;;;;;20.49;45.19;96934.69;5097578;28;20027;-83
2023/10/08 02:50:29;;;;;;;12.70;3.90;;;;;;;20.85;44.47;96932.66;5096885;28;20465;-83
2023/10/08 02:53:02;;;;;;;7.57;3.43;;;;;;;21.12;44.19;96936.09;5096566;28;20034;-83
2023/10/08 02:55:34;;;;;;;;;;;;;;;21.18;44.10;96935.28;5098032;28;20189;-83
2023/10/08 02:58:02;;;;;;;8.20;3.00;;;;;;;21.30;43.81;96938.97;5088792;28;19908;-83
2023/10/08 03:00:34;;;;;;;11.50;4.07;;;;;;;21.07;44.28;96933.25;5092812;28;20043;-83
2023/10/08 03:03:09;;;;;;;8.97;3.40;;;;;;;21.23;44.12;96938.16;5096982;28;20088;-82
2023/10/08 03:05:35;;;;;;;10.80;3.80;;;;;;;21.11;44.71;96932.63;5094664;28;20023;-83
2023/10/08 03:08:10;;;;;;;9.20;3.40;;;;;;;21.21;44.62;96937.53;5087876;28;20027;-82
2023/10/08 03:10:41;;;;;;;8.73;3.83;;;;;;;21.00;45.17;96930.59;5093197;28;20028;-83
2023/10/08 03:13:09;;;;;;;11.43;3.83;;;;;;;21.07;45.43;96934.06;5108605;28;20052;-83
2023/10/08 03:18:23;;;;;;;9.10;3.30;;;;;;;21.24;44.78;96931.78;5098336;28;20030;-83
2023/10/08 03:20:49;;;;;;;8.97;3.73;;;;;;;21.37;44.82;96923.75;5100568;28;20050;-82
2023/10/08 03:23:33;;;;;;;7.77;3.17;;;;;;;20.92;45.12;96936.13;5107522;28;20020;-83
2023/10/08 03:26:02;;;;;;;12.80;3.33;;;;;;;21.23;44.49;96932.81;5089905;28;20020;-83
2023/10/08 03:28:34;;;;;;;10.23;3.87;;;;;;;21.20;44.88;96935.91;5103235;28;20431;-82
2023/10/08 03:31:13;;;;;;;8.10;3.70;;;;;;;21.22;44.68;96939.19;5107059;27;20038;-83
2023/10/08 03:33:39;;;;;;;12.10;3.40;;;;;;;21.10;44.99;96951.56;5094357;28;20038;-83
2023/10/08 03:36:31;;;;;;;6.73;3.20;;;;;;;21.14;45.00;96947.44;5091864;28;20031;-83
2023/10/08 03:39:09;;;;;;;9.63;3.33;;;;;;;21.40;44.47;96954.63;5081845;28;20028;-84
2023/10/08 03:41:39;;;;;;;7.13;3.50;;;;;;;20.92;45.00;96957.53;5110964;28;20027;-83
2023/10/08 03:44:06;;;;;;;8.07;3.13;;;;;;;21.15;44.52;96957.09;5092658;28;20065;-83
2023/10/08 03:46:39;;;;;;;10.83;3.87;;;;;;;20.97;44.98;96960.41;5092366;28;20061;-83
2023/10/08 03:49:15;;;;;;;8.50;3.67;;;;;;;21.22;44.52;96959.75;5112634;27;20530;-83
2023/10/08 03:51:42;;;;;;;8.57;3.10;;;;;;;21.28;44.55;96958.94;5086324;28;20020;-83
2023/10/08 03:54:17;;;;;;;10.27;4.17;;;;;;;21.13;44.38;96960.00;5100800;28;20028;-83
2023/10/08 03:56:48;;;;;;;7.30;3.17;;;;;;;21.06;44.46;96955.66;5088376;28;20077;-83
2023/10/08 03:59:29;;;;;;;8.93;4.10;;;;;;;20.93;44.98;96957.34;5089106;28;20115;-83
2023/10/08 04:02:10;;;;;;;9.07;3.40;;;;;;;20.95;44.82;96943.75;5107910;28;20019;-83
2023/10/08 04:04:51;;;;;;;8.80;3.77;;;;;;;20.70;46.13;96947.06;5104593;28;20019;-83
2023/10/08 04:07:25;;;;;;;9.00;4.00;;;;;;;20.68;46.48;96942.94;5102997;28;20072;-83
2023/10/08 04:10:04;;;;;;;9.03;3.17;;;;;;;20.95;46.59;96933.88;5105428;28;20038;-83
2023/10/08 04:12:34;;;;;;;8.13;3.20;;;;;;;20.61;47.02;96926.91;5103029;28;20246;-83
2023/10/08 04:15:01;;;;;;;12.33;3.80;;;;;;;20.58;47.34;96921.16;5098056;28;20022;-83
2023/10/08 04:17:27;;;;;;;9.17;3.33;;;;;;;20.80;46.69;96927.13;5087716;28;20024;-83
2023/10/08 04:19:52;;;;;;;9.20;3.50;;;;;;;20.75;46.58;96937.59;5105404;28;20077;-82
2023/10/08 04:22:18;;;;;;;12.60;3.60;;;;;;;20.81;46.40;96934.09;5085177;28;20073;-83
2023/10/08 04:24:44;;;;;;;7.73;3.50;;;;;;;20.74;46.55;96928.75;5109112;28;20024;-82
2023/10/08 04:27:10;;;;;;;9.23;3.83;;;;;;;20.66;46.70;96939.66;5085345;28;20898;-83
2023/10/08 04:29:37;;;;;;;9.40;3.23;;;;;;;20.92;47.24;96936.13;5091319;28;20076;-83
2023/10/08 04:32:07;;;;;;;9.40;4.10;;;;;;;21.01;46.22;96931.41;5088234;28;20028;-83
2023/10/08 04:34:34;;;;;;;8.87;3.30;;;;;;;20.77;46.50;96940.91;5091096;28;20465;-82
2023/10/08 04:37:12;;;;;;;9.83;3.33;;;;;;;21.05;46.10;96933.44;5084358;28;20421;-83
2023/10/08 04:39:40;;;;;;;9.07;3.40;;;;;;;20.75;47.05;96937.59;5088485;28;20107;-83
2023/10/08 04:42:18;;;;;;;8.23;3.37;;;;;;;20.69;47.08;96933.88;5088999;28;20409;-83
2023/10/08 04:44:43;;;;;;;9.40;3.33;;;;;;;20.93;46.90;96925.25;5104063;28;20566;-83
2023/10/08 04:47:27;;;;;;;6.47;2.67;;;;;;;21.03;46.66;96924.00;5086698;28;20031;-83
2023/10/08 04:49:53;;;;;;;;;;;;;;;20.99;46.77;96928.94;5093173;28;20039;-83
2023/10/08 04:52:19;;;;;;;8.37;3.37;;;;;;;21.09;46.50;96928.50;5108336;28;20700;-83
2023/10/08 04:54:51;;;;;;;7.97;3.30;;;;;;;21.17;46.25;96930.97;5106438;28;20020;-83
2023/10/08 04:57:22;;;;;;;10.33;3.43;;;;;;;21.02;46.53;96944.56;5091736;28;20062;-83
2023/10/08 04:59:50;;;;;;;10.77;3.80;;;;;;;21.08;46.66;96946.41;5087406;28;20473;-82
2023/10/08 05:15:41;;;;;;;8.00;3.40;;;;;;;21.10;48.18;96971.09;5099008;28;20035;-83
2023/10/08 05:20:58;;;;;;;8.93;2.87;;;;;;;21.26;48.66;96980.56;5102274;28;20028;-83
2023/10/08 05:28:30;;;;;;;8.97;3.53;;;;;;;21.28;49.21;96989.16;5095978;28;20097;-83
2023/10/08 05:31:21;;;;;;;7.97;3.23;;;;;;;21.32;50.02;96985.03;5087261;28;20043;-83
2023/10/08 05:44:46;;;;;;;7.47;2.60;;;;;;;20.75;53.78;96969.66;5109940;28;20068;-83
2023/10/08 05:55:34;;;;;;;10.93;3.30;;;;;;;20.70;55.31;96968.44;5106483;28;20478;-83
2023/10/08 06:01:01;;;;;;;12.40;4.07;;;;;;;21.07;52.70;96963.50;5104603;28;20134;-82
2023/10/08 06:03:32;;;;;;;6.95;2.22;;;;;;;21.07;52.42;96950.13;5102608;28;20035;-83
2023/10/08 06:11:37;;;;;;;8.83;3.47;;;;;;;20.58;54.67;96955.88;5107674;28;20028;-83
2023/10/08 06:14:13;;;;;;;8.67;3.37;;;;;;;21.00;53.71;96957.34;5087799;28;20024;-83
2023/10/08 06:16:42;;;;;;;8.73;3.40;;;;;;;21.16;53.65;96961.44;5102198;28;20027;-83
2023/10/08 06:19:09;;;;;;;8.47;2.97;;;;;;;21.27;52.62;96957.28;5105344;28;20020;-83
2023/10/08 06:21:39;;;;;;;10.43;3.47;;;;;;;20.96;52.66;96961.47;5100795;28;20110;-83
2023/10/08 06:24:09;;;;;;;7.37;2.93;;;;;;;20.93;52.14;96969.88;5083718;28;20075;-83
2023/10/08 06:27:25;;;;;;;7.83;3.57;;;;;;;21.40;51.23;96954.63;5086742;28;20035;-83
2023/10/08 06:29:28;;;;;;;11.70;3.53;;;;;;;21.33;50.64;96943.09;5100479;28;20409;-83
2023/10/08 06:31:56;;;;;;;9.60;3.53;;;;;;;21.48;50.37;96940.19;5107657;28;20815;-83
2023/10/08 06:34:23;;;;;;;9.60;3.43;;;;;;;21.31;51.69;96942.47;5101243;28;20284;-83
2023/10/08 06:36:53;;;;;;;8.40;3.37;;;;;;;21.62;52.07;96942.59;5100875;28;20107;-83
2023/10/08 06:39:57;;;;;;;9.33;3.30;;;;;;;21.47;52.73;96949.25;5080702;28;20024;-83
2023/10/08 06:42:16;;;;;;;8.07;3.07;;;;;;;22.27;51.80;96961.28;5102965;28;20063;-83
2023/10/08 06:44:46;;;;;;;9.23;2.73;;;;;;;21.68;52.72;96956.16;5088767;28;20028;-84
2023/10/08 06:47:16;;;;;;;14.13;3.30;;;;;;;21.86;53.02;96967.00;5082351;28;20119;-83
2023/10/08 06:49:46;;;;;;;9.23;3.30;;;;;;;22.38;51.53;96958.94;5084417;28;20024;-83
2023/10/08 06:52:13;;;;;;;7.77;3.47;;;;;;;23.13;49.92;96961.66;5107004;28;20028;-83
2023/10/08 06:54:39;;;;;;;10.20;3.50;;;;;;;23.52;48.14;96965.81;5098030;28;20016;-85
2023/10/08 06:57:13;;;;;;;7.00;2.90;;;;;;;23.94;45.75;96960.59;5090513;28;20016;-85
2023/10/08 06:59:42;;;;;;;9.20;3.63;;;;;;;23.62;46.83;96976.84;5107508;28;20254;-85
2023/10/08 07:02:10;;;;;;;8.27;3.17;;;;;;;23.72;46.72;96976.38;5090320;28;20027;-85
2023/10/08 07:04:35;;;;;;;9.47;3.47;;;;;;;23.34;47.05;96977.38;5103152;28;20016;-85
2023/10/08 07:07:01;;;;;;;7.40;3.10;;;;;;;23.55;46.89;96984.16;5107702;28;20024;-86
2023/10/08 07:11:54;;;;;;;9.75;3.00;;;;;;;23.42;47.17;96976.25;5104063;28;20050;-85
2023/10/08 07:14:26;;;;;;;10.65;3.85;;;;;;;23.07;47.26;96976.78;5092330;28;20465;-86
2023/10/08 07:16:58;;;;;;;9.68;3.60;;;;;;;23.40;46.65;96978.31;5091931;28;20099;-85
2023/10/08 07:19:37;;;;;;;10.20;3.85;;;;;;;23.21;45.53;96977.50;5096851;28;20150;-85
2023/10/08 07:22:17;;;;;;;9.25;3.42;;;;;;;23.58;46.20;96978.34;5100433;28;20000;-86
2023/10/08 07:24:45;;;;;;;9.35;3.47;;;;;;;24.28;44.21;96977.09;5120435;28;20030;-86
2023/10/08 07:27:11;;;;;;;9.23;3.33;;;;;;;24.37;44.50;96975.72;5118607;28;20020;-86
2023/10/08 07:29:37;;;;;;;11.77;3.47;;;;;;;24.29;44.62;96987.63;5093715;28;20030;-85
2023/10/08 07:32:11;;;;;;;12.10;3.22;;;;;;;25.17;43.12;96981.56;5097585;28;20024;-85
2023/10/08 07:34:39;;;;;;;8.05;3.30;;;;;;;25.29;42.73;96986.13;5105590;28;20026;-85
2023/10/08 07:37:11;;;;;;;7.93;3.15;;;;;;;25.66;42.20;96977.78;5096183;28;20012;-85
2023/10/08 07:39:45;;;;;;;13.48;4.18;;;;;;;25.90;42.14;96978.59;5107664;28;20016;-84
2023/10/08 07:42:10;;;;;;;10.10;3.58;;;;;;;25.51;42.47;96968.31;5086650;28;20023;-85
2023/10/08 07:44:38;;;;;;;16.80;3.95;;;;;;;25.48;42.37;96968.78;5112063;28;20019;-84
2023/10/08 07:47:05;;;;;;;10.70;3.83;;;;;;;24.77;43.47;96967.09;5089621;28;20104;-85
2023/10/08 07:49:35;;;;;;;8.45;3.20;;;;;;;25.34;42.88;96964.69;5087926;28;20028;-85
2023/10/08 07:52:06;;;;;;;11.48;3.80;;;;;;;25.91;42.31;96967.56;5090316;28;20023;-84
2023/10/08 07:54:34;;;;;;;13.80;3.95;;;;;;;26.14;41.64;96963.16;5089499;28;20031;-85
2023/10/08 07:57:11;;;;;;;10.18;3.72;;;;;;;25.89;41.60;96964.31;5104132;28;20032;-88
2023/10/08 07:59:41;;;;;;;9.98;3.65;;;;;;;26.36;41.64;96961.44;5094214;28;20024;-88
2023/10/08 08:02:11;;;;;;;10.80;3.40;;;;;;;26.14;41.25;96966.66;5095538;28;20461;-87
2023/10/08 08:04:39;;;;;;;9.98;3.67;;;;;;;26.16;41.53;96963.75;5090416;28;20032;-88
2023/10/08 08:07:06;;;;;;;9.15;3.28;;;;;;;26.30;42.38;96981.25;5108861;28;20042;-86
2023/10/08 08:09:37;;;;;;;10.02;3.63;;;;;;;26.52;41.55;96984.09;5091549;28;20032;-87
2023/10/08 08:12:11;;;;;;;11.88;3.78;;;;;;;26.64;41.40;96997.56;5108307;28;20485;-87
2023/10/08 08:14:41;;;;;;;9.77;3.72;;;;;;;26.52;41.73;97009.19;5092937;28;20042;-87
2023/10/08 08:17:13;;;;;;;6.53;2.95;;;;;;;26.40;41.54;97016.50;5095330;28;20403;-86
2023/10/08 08:19:49;;;;;;;7.43;3.33;;;;;;;26.50;41.55;97035.63;5088034;28;20110;-87
2023/10/08 08:22:30;;;;;;;7.90;3.72;;;;;;;26.91;41.53;97039.03;5090507;28;20027;-88
2023/10/08 08:25:05;;;;;;;9.32;3.90;;;;;;;28.06;39.50;97049.47;5091464;28;20031;-87
2023/10/08 08:27:38;;;;;;;9.57;3.78;;;;;;;29.09;38.35;97050.34;5084027;28;20031;-87
2023/10/08 08:30:12;;;;;;;9.10;3.60;;;;;;;28.48;38.31;97059.75;5097082;28;20037;-87
2023/10/08 08:32:43;;;;;;;11.35;3.70;;;;;;;27.54;41.17;97077.63;5101860;28;20089;-86
2023/10/08 08:35:16;;;;;;;8.35;3.92;;;;;;;26.62;42.49;97064.41;5093439;28;20030;-87
2023/10/08 08:37:42;;;;;;;9.23;3.92;;;;;;;26.75;42.88;97061.41;5092195;28;20404;-87
2023/10/08 08:40:17;;;;;;;8.75;3.40;;;;;;;27.43;42.12;97059.63;5091792;28;20077;-87
2023/10/08 08:42:48;;;;;;;17.45;5.55;;;;;;;26.79;43.23;97052.63;5110186;28;20389;-87
2023/10/08 08:45:20;;;;;;;9.50;3.42;;;;;;;27.37;43.32;97047.13;5089565;28;20431;-87
2023/10/08 08:47:46;;;;;;;13.85;5.60;;;;;;;27.89;42.87;97063.84;5103103;28;20023;-88
2023/10/08 08:50:11;;;;;;;15.57;6.00;;;;;;;28.66;41.10;97062.91;5108506;28;20504;-87
2023/10/08 08:52:40;;;;;;;7.95;3.85;;;;;;;29.10;41.34;97059.28;5091105;28;20028;-87
2023/10/08 08:55:16;;;;;;;9.32;3.55;;;;;;;29.06;40.81;97055.47;5089172;28;20032;-88
2023/10/08 08:57:50;;;;;;;7.88;3.95;;;;;;;29.79;39.40;97061.22;5109567;28;20051;-87
2023/10/08 09:00:18;;;;;;;9.30;3.47;;;;;;;29.66;40.01;97048.91;5092971;28;20020;-84
2023/10/08 09:02:49;;;;;;;8.30;4.10;;;;;;;30.55;39.17;97044.47;5090537;28;20032;-84
2023/10/08 09:08:04;;;;;;;10.43;4.05;;;;;;;30.83;38.49;97055.97;5098355;28;20028;-85
2023/10/08 09:10:36;;;;;;;7.40;3.53;;;;;;;30.41;39.72;97067.75;5107179;28;20020;-87
2023/10/08 09:13:03;;;;;;;7.05;4.00;;;;;;;31.78;37.92;97067.13;5094584;28;20027;-87
2023/10/08 09:15:29;;;;;;;9.30;3.63;;;;;;;31.76;37.46;97068.47;5110149;28;20069;-84
2023/10/08 09:17:56;;;;;;;6.75;3.28;;;;;;;32.33;36.59;97068.09;5094149;28;20029;-87
2023/10/08 09:20:23;;;;;;;8.40;4.20;;;;;;;31.87;38.08;97061.94;5085432;28;20422;-90
2023/10/08 09:23:11;;;;;;;9.18;4.43;;;;;;;32.19;37.95;97063.50;5089467;28;20028;-89
2023/10/08 09:25:45;;;;;;;7.65;2.97;;;;;;;32.38;37.72;97061.78;5102021;28;20496;-88
2023/10/08 09:28:14;;;;;;;8.82;3.30;;;;;;;30.76;39.17;97062.47;5093770;28;20072;-88
2023/10/08 09:30:40;;;;;;;8.05;3.50;;;;;;;30.46;39.81;97062.38;5095901;28;20077;-86
2023/10/08 09:33:09;;;;;;;8.48;3.67;;;;;;;29.52;40.96;97069.41;5105275;28;20085;-87
2023/10/08 09:35:37;;;;;;;10.02;3.70;;;;;;;29.03;41.80;97067.63;5082613;28;20201;-88
2023/10/08 09:38:03;;;;;;;7.43;3.70;;;;;;;30.11;40.92;97066.50;5097640;28;20029;-88
2023/10/08 09:40:29;;;;;;;9.07;4.35;;;;;;;30.38;40.53;97055.53;5086610;28;20073;-90
2023/10/08 09:42:56;;;;;;;12.90;7.47;;;;;;;29.62;42.17;97057.84;5108871;28;20027;-88
2023/10/08 09:45:22;;;;;;;17.20;9.48;;;;;;;29.14;42.84;97049.56;5086052;28;20039;-89
2023/10/08 09:47:55;;;;;;;8.23;3.90;;;;;;;29.16;43.83;97047.44;5091889;28;20051;-89
2023/10/08 09:50:41;;;;;;;8.10;3.90;;;;;;;28.85;45.70;97049.84;5107454;28;20630;-88
2023/10/08 09:53:19;;;;;;;10.82;3.47;;;;;;;29.81;43.29;97059.03;5111373;28;20591;-89
2023/10/08 09:56:06;;;;;;;6.70;3.17;;;;;;;29.25;44.56;97058.63;5105761;28;20030;-88
2023/10/08 09:58:32;;;;;;;9.82;3.35;;;;;;;29.66;43.55;97059.75;5092950;28;20042;-88
2023/10/08 10:01:13;;;;;;;11.63;4.07;;;;;;;29.98;42.90;97056.13;5093861;28;20110;-88
2023/10/08 10:03:42;;;;;;;10.82;3.92;;;;;;;29.66;43.40;97054.34;5110266;28;20050;-87
2023/10/08 10:06:18;;;;;;;11.07;3.50;;;;;;;29.36;43.37;97061.16;5097049;28;20087;-88
2023/10/08 10:08:48;;;;;;;8.60;3.88;;;;;;;29.42;44.24;97067.44;5088356;28;20023;-88
2023/10/08 10:11:16;;;;;;;8.18;3.85;;;;;;;29.03;44.56;97064.13;5089201;28;20027;-88
2023/10/08 10:13:48;;;;;;;8.82;3.63;;;;;;;29.66;44.22;97054.34;5083997;28;20103;-88
2023/10/08 10:16:18;;;;;;;7.00;3.15;;;;;;;29.13;45.37;97065.00;5088556;28;20418;-87
2023/10/08 10:18:46;;;;;;;8.70;3.42;;;;;;;28.88;45.47;97071.00;5077813;28;20051;-88
2023/10/08 10:21:13;;;;;;;8.90;4.25;;;;;;;29.15;45.44;97070.19;5091947;28;20020;-88
2023/10/08 10:23:43;;;;;;;10.68;6.68;;;;;;;29.37;45.16;97065.47;5093338;28;20019;-88
2023/10/08 10:26:40;;;;;;;9.35;3.83;;;;;;;29.08;45.36;97059.56;5090865;28;20065;-89
2023/10/08 10:29:15;;;;;;;10.10;4.72;;;;;;;29.11;45.70;97055.53;5084934;28;20035;-88
2023/10/08 10:32:00;;;;;;;7.28;4.07;;;;;;;29.10;45.48;97057.41;5085600;28;20031;-88
2023/10/08 10:34:34;;;;;;;11.45;3.80;;;;;;;28.70;45.52;97065.91;5104053;28;20051;-88
2023/10/08 10:37:25;;;;;;;9.77;3.45;;;;;;;28.19;45.66;97068.00;5115007;28;20023;-87
2023/10/08 10:39:59;;;;;;;10.63;4.00;;;;;;;28.02;45.15;97056.44;5104264;28;20043;-87
2023/10/08 10:42:28;;;;;;;9.38;3.80;;;;;;;28.56;44.19;97057.38;5085154;28;20065;-88
2023/10/08 10:44:56;;;;;;;8.77;4.00;;;;;;;28.81;43.57;97056.03;5084991;28;20020;-87
2023/10/08 10:49:53;;;;;;;7.97;3.20;;;;;;;28.28;45.34;97063.00;5104078;28;20561;-88
2023/10/08 10:52:44;;;;;;;11.70;4.28;;;;;;;28.13;44.99;97069.00;5106839;28;20371;-88
2023/10/08 10:57:56;;;;;;;9.93;4.25;;;;;;;28.35;44.47;97069.84;5101299;28;20027;-88
2023/10/08 11:03:17;;;;;;;7.53;3.45;;;;;;;29.41;43.28;97057.69;5100710;28;20475;-88
2023/10/08 11:05:54;;;;;;;8.85;3.22;;;;;;;29.79;42.57;97045.75;5112954;28;20106;-86
2023/10/08 11:08:23;;;;;;;7.85;3.60;;;;;;;30.34;40.99;97043.59;5096602;28;20026;-86
2023/10/08 11:10:51;;;;;;;13.38;3.90;;;;;;;29.82;41.81;97047.94;5093013;28;20118;-87
2023/10/08 11:13:21;;;;;;;6.93;3.38;;;;;;;29.93;41.74;97048.00;5096328;28;20080;-89
2023/10/08 11:15:51;;;;;;;7.95;3.63;;;;;;;29.30;43.44;97053.22;5104453;28;20826;-89
2023/10/08 11:18:30;;;;;;;9.80;4.00;;;;;;;29.52;42.88;97056.66;5083270;28;20794;-87
2023/10/08 11:21:15;;;;;;;7.28;3.53;;;;;;;29.31;43.08;97055.69;5105479;28;20036;-86
2023/10/08 11:23:43;;;;;;;11.80;4.13;;;;;;;29.50;42.78;97061.50;5094042;28;20080;-87
2023/10/08 11:26:09;;;;;;;8.35;3.72;;;;;;;28.86;43.15;97061.50;5096181;28;20781;-86
2023/10/08 11:28:43;;;;;;;15.85;4.10;;;;;;;28.97;43.09;97068.63;5096346;28;20023;-87
2023/10/08 11:31:14;;;;;;;8.38;3.53;;;;;;;29.49;42.55;97059.09;5112221;28;20435;-87
2023/10/08 11:33:54;;;;;;;9.23;3.85;;;;;;;29.51;41.96;97060.47;5100867;28;20027;-85
2023/10/08 11:36:33;;;;;;;9.48;4.20;;;;;;;29.50;42.79;97063.41;5092049;28;20019;-85
2023/10/08 11:39:11;;;;;;;10.35;3.88;;;;;;;29.91;41.94;97048.25;5111585;28;20027;-84
2023/10/08 11:41:52;;;;;;;6.93;3.35;;;;;;;30.20;40.89;97043.25;5091572;28;20062;-84
2023/10/08 11:44:23;;;;;;;8.73;4.32;;;;;;;29.73;41.51;97043.28;5092931;28;20020;-83
2023/10/08 11:46:53;;;;;;;11.48;4.60;;;;;;;29.93;42.11;97048.00;5087953;28;20038;-84
2023/10/08 11:49:19;;;;;;;10.15;4.50;;;;;;;28.92;42.14;97044.22;5091788;28;20072;-82
2023/10/08 11:51:46;;;;;;;12.48;4.07;;;;;;;29.68;41.93;97035.94;5092164;28;20027;-83
2023/10/08 11:54:12;;;;;;;8.68;3.88;;;;;;;29.53;41.98;97023.06;5087860;28;20036;-83
2023/10/08 11:56:39;;;;;;;10.85;4.10;;;;;;;29.43;42.44;97014.03;5090444;28;20027;-86
2023/10/08 11:59:08;;;;;;;9.38;5.22;;;;;;;29.45;41.92;97015.44;5088582;28;20063;-83
2023/10/08 12:01:37;;;;;;;9.40;3.70;;;;;;;30.57;40.69;97003.47;5105983;28;20111;-85
2023/10/08 12:04:03;;;;;;;9.73;3.80;;;;;;;30.14;41.85;96997.34;5102350;28;20028;-86
2023/10/08 12:06:32;;;;;;;10.43;4.43;;;;;;;30.64;40.32;97004.03;5094950;28;20034;-86
2023/10/08 12:08:59;;;;;;;10.52;3.75;;;;;;;31.57;39.46;97006.53;5097010;28;20057;-86
2023/10/08 12:11:32;;;;;;;10.50;4.32;;;;;;;30.91;39.61;97006.53;5112097;28;20031;-85
2023/10/08 12:14:03;;;;;;;8.95;4.57;;;;;;;31.42;39.35;97015.53;5090186;28;20024;-85
2023/10/08 12:16:35;;;;;;;8.52;3.65;;;;;;;30.51;40.69;97000.75;5104668;28;20032;-84
2023/10/08 12:19:16;;;;;;;11.18;4.60;;;;;;;30.86;40.17;96996.50;5093861;28;20032;-84
2023/10/08 12:21:49;;;;;;;10.18;3.83;;;;;;;31.36;39.89;97007.66;5095266;28;20085;-84
2023/10/08 12:24:17;;;;;;;13.70;4.68;;;;;;;31.41;39.69;97010.38;5088534;28;20020;-86
2023/10/08 12:26:45;;;;;;;10.35;4.10;;;;;;;30.68;40.88;97007.84;5085682;28;20043;-86
2023/10/08 12:29:16;;;;;;;8.57;4.20;;;;;;;30.65;40.12;97006.50;5087987;28;20087;-84
2023/10/08 12:31:47;;;;;;;10.57;3.97;;;;;;;31.29;39.19;97004.34;5091154;28;20028;-87
2023/10/08 12:34:13;;;;;;;12.50;4.15;;;;;;;31.70;39.13;97008.69;5101059;28;20484;-87
2023/10/08 12:36:43;;;;;;;10.35;4.32;;;;;;;31.73;38.87;97015.47;5091960;27;20027;-87
2023/10/08 12:39:16;;;;;;;7.67;3.70;;;;;;;31.95;38.67;97023.31;5109912;28;20019;-88
2023/10/08 12:41:46;;;;;;;7.65;3.10;;;;;;;31.78;38.73;97037.19;5099667;28;20708;-89
2023/10/08 12:44:12;;;;;;;14.07;4.45;;;;;;;31.63;39.19;97046.22;5092973;28;20028;-87
2023/10/08 12:46:38;;;;;;;13.10;3.78;;;;;;;31.12;40.21;97048.94;5099972;28;20031;-85
2023/10/08 12:49:04;;;;;;;8.50;3.72;;;;;;;31.23;39.24;97047.84;5092804;28;20370;-87
2023/10/08 12:51:33;;;;;;;11.18;4.07;;;;;;;30.70;39.89;97044.50;5094771;28;20564;-84
2023/10/08 12:54:11;;;;;;;10.65;4.43;;;;;;;31.37;39.50;97039.19;5087993;28;20461;-85
2023/10/08 12:56:44;;;;;;;9.55;4.43;;;;;;;31.08;39.12;97039.69;5094033;28;20024;-84